Terminal Aerodrome Forecast
Issued by NWS

Home | Current Version | Previous Version | Graphics & Text | Print | Product List | Glossary On
Versions: 1 2 3 4 5 6 7 8 9 10 11 12 13 14 15
000
FTUS43 KMPX 191732
TAFRWF
TAF
KRWF 191732Z 1918/2018 07011G18KT P6SM OVC120
     FM192100 07010KT P6SM OVC070
     FM201000 07007KT 5SM -RA BR OVC025
     FM201400 07010KT 4SM RA BR OVC007=

USA.gov is the U.S. government's official web portal to all federal, state and local government web resources and services.